createdAt,value
2022-11-10T00:00:22.485Z,12.70
2022-11-10T00:05:40.182Z,12.70
2022-11-10T00:11:01.397Z,12.60
2022-11-10T00:16:37.794Z,12.60
2022-11-10T00:21:55.175Z,12.50
2022-11-10T00:27:13.215Z,12.50
2022-11-10T00:32:31.422Z,12.60
2022-11-10T00:37:49.029Z,12.60
2022-11-10T00:43:06.126Z,12.50
2022-11-10T00:48:23.160Z,12.50
2022-11-10T00:53:40.785Z,12.50
2022-11-10T00:58:58.151Z,12.40
2022-11-10T01:04:16.009Z,12.30
2022-11-10T01:09:33.063Z,12.20
2022-11-10T01:14:50.282Z,12.30
2022-11-10T01:20:08.504Z,12.40
2022-11-10T01:25:26.227Z,12.30
2022-11-10T01:30:44.181Z,12.20
2022-11-10T01:36:02.250Z,12.10
2022-11-10T01:41:20.216Z,12.10
2022-11-10T01:46:37.345Z,12.00
2022-11-10T01:51:55.545Z,12.00
2022-11-10T01:57:12.969Z,11.90
2022-11-10T02:02:30.100Z,11.90
2022-11-10T02:07:47.238Z,11.90
2022-11-10T02:13:04.961Z,12.00
2022-11-10T02:18:22.173Z,12.00
2022-11-10T02:23:39.344Z,12.10
2022-11-10T02:28:57.028Z,12.20
2022-11-10T02:34:14.295Z,12.20
2022-11-10T02:39:32.246Z,12.20
2022-11-10T02:44:50.194Z,12.20
2022-11-10T02:50:07.013Z,12.20
2022-11-10T02:55:24.136Z,12.20
2022-11-10T03:00:41.310Z,12.10
2022-11-10T03:05:58.945Z,12.00
2022-11-10T03:11:15.960Z,11.90
2022-11-10T03:16:33.236Z,11.90
2022-11-10T03:21:50.113Z,11.80
2022-11-10T03:27:07.321Z,11.80
2022-11-10T03:32:25.557Z,11.80
2022-11-10T03:37:43.182Z,11.80
2022-11-10T03:43:00.241Z,11.80
2022-11-10T03:48:17.118Z,11.80
2022-11-10T03:53:34.145Z,11.80
2022-11-10T03:58:51.149Z,11.70
2022-11-10T04:04:08.306Z,11.70
2022-11-10T04:09:26.405Z,11.70
2022-11-10T04:15:02.551Z,11.60
2022-11-10T04:20:20.885Z,11.50
2022-11-10T04:25:38.422Z,11.50
2022-11-10T04:30:56.254Z,11.40
2022-11-10T04:36:13.271Z,11.30
2022-11-10T04:41:30.194Z,11.30
2022-11-10T04:46:47.489Z,11.40
2022-11-10T04:52:05.174Z,11.40
2022-11-10T04:57:22.557Z,11.40
2022-11-10T05:02:40.072Z,11.40
2022-11-10T05:07:57.219Z,11.40
2022-11-10T05:13:14.194Z,11.50
2022-11-10T05:18:31.210Z,11.60
2022-11-10T05:23:57.355Z,11.60
2022-11-10T05:29:15.232Z,11.60
2022-11-10T05:34:32.595Z,11.50
2022-11-10T05:39:50.040Z,11.50
2022-11-10T05:45:06.875Z,11.60
2022-11-10T05:50:24.303Z,11.60
2022-11-10T05:55:42.444Z,11.70
2022-11-10T06:01:00.495Z,11.80
2022-11-10T06:06:18.299Z,11.80
2022-11-10T06:17:31.409Z,11.80
2022-11-10T06:22:49.372Z,11.70
2022-11-10T06:28:07.106Z,11.60
2022-11-10T06:33:24.411Z,11.50
2022-11-10T06:38:42.330Z,11.40
2022-11-10T06:43:59.878Z,11.30
2022-11-10T06:49:17.506Z,11.20
2022-11-10T06:54:35.314Z,11.20
2022-11-10T06:59:52.264Z,11.20
2022-11-10T07:05:09.198Z,11.10
2022-11-10T07:10:26.233Z,11.20
2022-11-10T07:15:43.168Z,11.10
2022-11-10T07:21:00.195Z,11.20
2022-11-10T07:26:17.367Z,11.30
2022-11-10T07:31:34.317Z,11.40
2022-11-10T07:36:51.463Z,11.40
2022-11-10T07:42:09.249Z,11.50
2022-11-10T07:47:26.217Z,11.70
2022-11-10T07:52:43.538Z,11.90
2022-11-10T07:58:01.591Z,12.00
2022-11-10T08:03:19.714Z,12.10
2022-11-10T08:08:37.257Z,12.10
2022-11-10T08:13:54.220Z,12.20
2022-11-10T08:19:11.474Z,12.40
2022-11-10T08:24:29.332Z,12.70
2022-11-10T08:29:46.479Z,12.90
2022-11-10T08:35:04.214Z,12.90
2022-11-10T08:40:23.012Z,12.90
2022-11-10T08:45:40.380Z,12.90
2022-11-10T08:50:58.412Z,12.80
2022-11-10T08:56:18.228Z,12.80
2022-11-10T09:01:35.620Z,12.70
2022-11-10T09:06:53.396Z,12.70
2022-11-10T09:12:10.266Z,12.80
2022-11-10T09:17:27.372Z,12.90
2022-11-10T09:22:44.235Z,13.00
2022-11-10T09:28:01.103Z,13.00
2022-11-10T09:33:18.609Z,13.00
2022-11-10T09:38:36.440Z,13.00
2022-11-10T09:43:54.238Z,13.10
2022-11-10T09:49:11.423Z,13.30
2022-11-10T09:54:29.513Z,13.40
2022-11-10T09:59:47.374Z,13.50
2022-11-10T10:05:04.420Z,13.50
2022-11-10T10:10:22.751Z,13.60
2022-11-10T10:15:40.587Z,13.80
2022-11-10T10:20:58.460Z,13.90
2022-11-10T10:26:15.343Z,14.00
2022-11-10T10:31:32.639Z,14.10
2022-11-10T10:36:50.092Z,14.20
2022-11-10T10:42:07.520Z,14.30
2022-11-10T10:47:25.476Z,14.30
2022-11-10T10:52:44.986Z,14.40
2022-11-10T10:58:02.541Z,14.50
2022-11-10T11:03:20.366Z,14.60
2022-11-10T11:08:38.117Z,14.80
2022-11-10T11:13:55.498Z,14.90
2022-11-10T11:19:15.400Z,15.10
2022-11-10T11:24:32.338Z,15.30
2022-11-10T11:29:49.388Z,15.40
2022-11-10T11:35:06.675Z,15.50
2022-11-10T11:40:24.230Z,15.60
2022-11-10T11:45:41.484Z,15.60
2022-11-10T11:50:59.772Z,15.70
2022-11-10T11:56:17.525Z,15.70
2022-11-10T12:01:34.542Z,15.60
2022-11-10T12:06:52.635Z,15.70
2022-11-10T12:12:10.580Z,15.70
2022-11-10T12:17:28.584Z,15.80
2022-11-10T12:22:46.486Z,15.80
2022-11-10T12:28:04.325Z,15.90
2022-11-10T12:33:22.866Z,16.00
2022-11-10T12:38:40.710Z,16.00
2022-11-10T12:43:58.498Z,16.00
2022-11-10T12:49:15.504Z,16.10
2022-11-10T12:54:32.638Z,16.20
2022-11-10T12:59:50.592Z,16.30
2022-11-10T13:05:07.669Z,16.30
2022-11-10T13:10:25.567Z,16.30
2022-11-10T13:15:42.674Z,16.30
2022-11-10T13:21:01.385Z,16.50
2022-11-10T13:26:18.669Z,16.60
2022-11-10T13:31:36.602Z,16.70
2022-11-10T13:36:54.409Z,16.70
2022-11-10T13:42:11.509Z,16.90
2022-11-10T13:47:28.533Z,17.10
2022-11-10T13:52:46.504Z,17.40
2022-11-10T13:58:03.648Z,17.40
2022-11-10T14:03:21.661Z,17.50
2022-11-10T14:08:39.448Z,17.50
2022-11-10T14:13:57.164Z,17.50
2022-11-10T14:19:14.637Z,17.50
2022-11-10T14:24:31.560Z,17.40
2022-11-10T14:29:48.460Z,17.40
2022-11-10T14:35:05.893Z,17.40
2022-11-10T14:40:23.541Z,17.40
2022-11-10T14:45:40.633Z,17.40
2022-11-10T14:50:59.354Z,17.20
2022-11-10T14:56:16.594Z,17.00
2022-11-10T15:01:33.898Z,16.70
2022-11-10T15:06:51.560Z,16.40
2022-11-10T15:12:08.610Z,16.20
2022-11-10T15:17:25.580Z,16.10
2022-11-10T15:22:42.939Z,16.00
2022-11-10T15:28:00.606Z,15.90
2022-11-10T15:33:18.626Z,15.70
2022-11-10T15:38:35.600Z,15.60
2022-11-10T15:43:52.565Z,15.50
2022-11-10T15:49:09.602Z,15.40
2022-11-10T15:54:26.395Z,15.30
2022-11-10T15:59:43.674Z,15.20
2022-11-10T16:05:00.492Z,15.00
2022-11-10T16:10:17.637Z,14.90
2022-11-10T16:15:34.580Z,14.70
2022-11-10T16:20:51.976Z,14.60
2022-11-10T16:26:09.567Z,14.60
2022-11-10T16:31:26.654Z,14.50
2022-11-10T16:36:44.486Z,14.40
2022-11-10T16:42:02.116Z,14.50
2022-11-10T16:47:19.770Z,14.40
2022-11-10T16:52:39.083Z,14.40
2022-11-10T16:57:56.743Z,14.30
2022-11-10T17:03:14.862Z,14.30
2022-11-10T17:08:32.688Z,14.20
2022-11-10T17:13:49.618Z,14.00
2022-11-10T17:19:06.843Z,13.90
2022-11-10T17:24:24.572Z,13.80
2022-11-10T17:29:42.658Z,13.70
2022-11-10T17:35:00.822Z,13.50
2022-11-10T17:40:18.969Z,13.50
2022-11-10T17:45:36.735Z,13.40
2022-11-10T17:50:54.463Z,13.30
2022-11-10T17:56:11.900Z,13.30
2022-11-10T18:01:29.831Z,13.20
2022-11-10T18:06:47.913Z,13.20
2022-11-10T18:12:05.692Z,13.20
2022-11-10T18:17:23.659Z,13.20
2022-11-10T18:22:40.587Z,13.10
2022-11-10T18:27:57.854Z,13.10
2022-11-10T18:33:15.594Z,13.00
2022-11-10T18:38:32.715Z,13.00
2022-11-10T18:43:50.682Z,12.90
2022-11-10T18:49:07.691Z,12.90
2022-11-10T18:54:24.575Z,12.80
2022-11-10T18:59:41.751Z,12.60
2022-11-10T19:04:59.617Z,12.50
2022-11-10T19:10:17.766Z,12.40
2022-11-10T19:15:34.608Z,12.40
2022-11-10T19:20:51.702Z,12.30
2022-11-10T19:26:08.955Z,12.30
2022-11-10T19:31:26.698Z,12.20
2022-11-10T19:36:43.815Z,12.10
2022-11-10T19:42:01.787Z,12.10
2022-11-10T19:47:19.714Z,12.00
2022-11-10T19:52:36.838Z,12.00
2022-11-10T19:57:55.122Z,11.90
2022-11-10T20:03:12.698Z,11.90
2022-11-10T20:08:29.637Z,11.80
2022-11-10T20:13:48.843Z,11.70
2022-11-10T20:19:05.823Z,11.70
2022-11-10T20:24:22.870Z,11.60
2022-11-10T20:29:40.927Z,11.60
2022-11-10T20:34:58.784Z,11.50
2022-11-10T20:40:43.029Z,11.50
2022-11-10T20:45:35.926Z,11.50
2022-11-10T20:50:53.851Z,11.40
2022-11-10T20:56:12.046Z,11.40
2022-11-10T21:01:32.041Z,11.40
2022-11-10T21:06:49.740Z,11.40
2022-11-10T21:12:25.232Z,11.40
2022-11-10T21:17:44.328Z,11.40
2022-11-10T21:23:03.529Z,11.30
2022-11-10T21:28:20.850Z,11.30
2022-11-10T21:33:38.954Z,11.30
2022-11-10T21:38:57.023Z,11.30
2022-11-10T21:44:14.736Z,11.30
2022-11-10T21:49:31.863Z,11.20
2022-11-10T21:54:48.862Z,11.20
2022-11-10T22:00:05.730Z,11.10
2022-11-10T22:05:22.743Z,11.10
2022-11-10T22:10:58.121Z,11.10
2022-11-10T22:16:34.432Z,11.10
2022-11-10T22:21:51.641Z,11.10
2022-11-10T22:27:08.600Z,11.10
2022-11-10T22:32:25.878Z,11.10
2022-11-10T22:37:42.859Z,11.10
2022-11-10T22:43:18.120Z,11.10
2022-11-10T22:48:44.671Z,11.10
2022-11-10T22:54:05.073Z,11.00
2022-11-10T22:59:24.788Z,11.10
2022-11-10T23:04:41.699Z,11.00
2022-11-10T23:09:58.636Z,11.00
2022-11-10T23:15:16.036Z,11.10
2022-11-10T23:20:33.591Z,11.00
2022-11-10T23:25:50.847Z,11.00
2022-11-10T23:31:08.935Z,11.00
2022-11-10T23:36:26.857Z,11.00
2022-11-10T23:41:44.877Z,11.00
2022-11-10T23:47:01.962Z,11.00
2022-11-10T23:52:20.118Z,11.00
2022-11-10T23:57:38.206Z,10.90
